createdAt,value
2022-10-23T00:02:27.006Z,98691.56
2022-10-23T00:05:31.122Z,98705.31
2022-10-23T00:08:34.340Z,98711.09
2022-10-23T00:11:38.237Z,98715.47
2022-10-23T00:14:41.527Z,98709.97
2022-10-23T00:17:46.584Z,98714.66
2022-10-23T00:20:50.069Z,98718.53
2022-10-23T00:23:54.550Z,98714.66
2022-10-23T00:26:57.907Z,98718.53
2022-10-23T00:30:02.114Z,98717.41
2022-10-23T00:33:07.305Z,98720.97
2022-10-23T00:36:14.170Z,98719.03
2022-10-23T00:39:19.947Z,98722.41
2022-10-23T00:42:23.704Z,98716.91
2022-10-23T00:45:33.385Z,98727.91
2022-10-23T00:48:38.206Z,98717.72
2022-10-23T00:51:49.175Z,98721.59
2022-10-23T00:54:52.692Z,98723.00
2022-10-23T00:57:56.702Z,98731.25
2022-10-23T01:01:00.285Z,98717.50
2022-10-23T01:04:08.732Z,98719.16
2022-10-23T01:07:22.222Z,98725.47
2022-10-23T01:10:38.795Z,98730.16
2022-10-23T01:17:20.555Z,98734.00
2022-10-23T01:20:43.507Z,98736.75
2022-10-23T01:24:19.512Z,98739.50
2022-10-23T01:27:28.939Z,98738.75
2022-10-23T01:34:00.997Z,98737.41
2022-10-23T01:37:11.921Z,98737.41
2022-10-23T01:40:26.307Z,98745.38
2022-10-23T01:43:40.063Z,98745.66
2022-10-23T01:46:47.907Z,98743.22
2022-10-23T01:49:54.502Z,98752.28
2022-10-23T01:52:58.720Z,98747.91
2022-10-23T01:56:06.992Z,98745.94
2022-10-23T01:59:17.994Z,98746.78
2022-10-23T02:02:25.820Z,98745.16
2022-10-23T02:05:31.913Z,98753.72
2022-10-23T02:08:36.376Z,98747.41
2022-10-23T02:11:53.737Z,98752.28
2022-10-23T02:15:09.125Z,98745.16
2022-10-23T02:18:31.323Z,98751.78
2022-10-23T02:21:50.927Z,98750.66
2022-10-23T02:25:02.100Z,98756.47
2022-10-23T02:28:16.603Z,98755.63
2022-10-23T02:31:25.394Z,98763.88
2022-10-23T02:34:30.305Z,98757.56
2022-10-23T02:37:34.878Z,98754.53
2022-10-23T02:40:46.049Z,98753.41
2022-10-23T02:44:08.669Z,98764.09
2022-10-23T02:47:30.045Z,98767.94
2022-10-23T02:50:45.732Z,98760.03
2022-10-23T02:54:06.352Z,98767.94
2022-10-23T02:57:23.910Z,98775.06
2022-10-23T03:00:33.974Z,98781.69
2022-10-23T03:03:46.498Z,98784.44
2022-10-23T03:06:51.645Z,98783.66
2022-10-23T03:09:54.940Z,98793.00
2022-10-23T03:12:58.438Z,98790.25
2022-10-23T03:16:02.631Z,98788.31
2022-10-23T03:19:07.381Z,98800.13
2022-10-23T03:22:10.707Z,98805.63
2022-10-23T03:25:14.073Z,98804.00
2022-10-23T03:28:17.431Z,98800.13
2022-10-23T03:31:20.672Z,98805.63
2022-10-23T03:34:27.882Z,98809.19
2022-10-23T03:37:30.959Z,98806.75
2022-10-23T03:40:34.351Z,98802.38
2022-10-23T03:43:37.402Z,98805.94
2022-10-23T03:46:40.786Z,98804.00
2022-10-23T03:49:45.444Z,98798.50
2022-10-23T03:52:48.916Z,98802.38
2022-10-23T03:55:52.101Z,98801.53
2022-10-23T03:58:55.535Z,98796.88
2022-10-23T04:02:01.538Z,98799.63
2022-10-23T04:05:07.646Z,98795.75
2022-10-23T04:08:12.688Z,98802.38
2022-10-23T04:11:18.394Z,98800.44
2022-10-23T04:14:22.762Z,98802.38
2022-10-23T04:20:36.657Z,98803.19
2022-10-23T04:23:40.156Z,98794.94
2022-10-23T04:26:49.602Z,98798.50
2022-10-23T04:29:55.490Z,98799.31
2022-10-23T04:33:01.744Z,98790.25
2022-10-23T04:36:08.410Z,98788.31
2022-10-23T04:39:13.010Z,98790.25
2022-10-23T04:42:16.290Z,98792.19
2022-10-23T04:45:19.494Z,98800.13
2022-10-23T04:48:25.613Z,98804.00
2022-10-23T04:52:00.029Z,98799.63
2022-10-23T04:55:38.754Z,98806.22
2022-10-23T04:58:52.523Z,98800.72
2022-10-23T05:01:56.095Z,98802.88
2022-10-23T05:05:01.012Z,98811.13
2022-10-23T05:08:26.443Z,98803.19
2022-10-23T05:11:50.560Z,98800.72
2022-10-23T05:14:53.954Z,98812.53
2022-10-23T05:18:05.459Z,98813.88
2022-10-23T05:21:16.220Z,98809.19
2022-10-23T05:24:21.356Z,98813.88
2022-10-23T05:27:32.490Z,98817.22
2022-10-23T05:30:36.085Z,98811.72
2022-10-23T05:33:42.476Z,98823.53
2022-10-23T05:36:48.072Z,98820.78
2022-10-23T05:39:53.777Z,98822.13
2022-10-23T05:42:57.452Z,98816.63
2022-10-23T05:46:24.000Z,98828.41
2022-10-23T05:49:49.649Z,98823.72
2022-10-23T05:53:05.937Z,98820.69
2022-10-23T05:56:38.128Z,98828.66
2022-10-23T05:59:47.102Z,98827.25
2022-10-23T06:03:02.649Z,98831.91
2022-10-23T06:06:13.851Z,98826.94
2022-10-23T06:09:22.708Z,98834.09
2022-10-23T06:12:32.986Z,98829.09
2022-10-23T06:15:36.358Z,98841.22
2022-10-23T06:18:46.911Z,98852.75
2022-10-23T06:21:52.283Z,98859.06
2022-10-23T06:24:57.992Z,98865.38
2022-10-23T06:28:04.688Z,98868.63
2022-10-23T06:31:11.363Z,98874.66
2022-10-23T06:34:15.976Z,98875.75
2022-10-23T06:37:19.184Z,98874.66
2022-10-23T06:40:28.129Z,98870.25
2022-10-23T06:43:39.485Z,98868.03
2022-10-23T06:47:14.321Z,98865.56
2022-10-23T06:50:39.380Z,98860.91
2022-10-23T06:53:48.064Z,98864.75
2022-10-23T06:57:09.850Z,98866.41
2022-10-23T07:00:22.564Z,98866.09
2022-10-23T07:03:27.284Z,98878.44
2022-10-23T07:06:30.897Z,98876.22
2022-10-23T07:09:37.161Z,98875.03
2022-10-23T07:13:03.139Z,98878.59
2022-10-23T07:17:16.047Z,98871.63
2022-10-23T07:20:37.828Z,98868.13
2022-10-23T07:23:42.313Z,98866.13
2022-10-23T07:26:46.541Z,98866.66
2022-10-23T07:29:52.151Z,98861.66
2022-10-23T07:32:58.975Z,98859.13
2022-10-23T07:36:27.135Z,98854.16
2022-10-23T07:39:30.817Z,98848.59
2022-10-23T07:42:35.446Z,98850.94
2022-10-23T07:45:41.421Z,98869.50
2022-10-23T07:48:55.193Z,98879.84
2022-10-23T07:51:59.039Z,98877.81
2022-10-23T07:55:11.246Z,98877.75
2022-10-23T07:58:20.779Z,98878.50
2022-10-23T08:01:36.101Z,98881.13
2022-10-23T08:04:41.909Z,98883.81
2022-10-23T08:08:06.189Z,98873.31
2022-10-23T08:11:16.325Z,98866.06
2022-10-23T08:14:27.237Z,98869.88
2022-10-23T08:17:32.160Z,98866.25
2022-10-23T08:20:48.493Z,98864.19
2022-10-23T08:23:55.030Z,98861.34
2022-10-23T08:26:59.427Z,98860.16
2022-10-23T08:30:05.115Z,98864.44
2022-10-23T08:33:09.313Z,98868.22
2022-10-23T08:36:22.026Z,98870.47
2022-10-23T08:39:25.779Z,98869.84
2022-10-23T08:43:00.851Z,98860.13
2022-10-23T08:46:12.998Z,98864.53
2022-10-23T08:49:50.461Z,98867.50
2022-10-23T08:53:04.452Z,98870.97
2022-10-23T08:56:28.450Z,98875.84
2022-10-23T08:59:40.413Z,98869.22
2022-10-23T09:02:47.480Z,98889.84
2022-10-23T09:06:09.470Z,98873.53
2022-10-23T09:09:51.207Z,98888.94
2022-10-23T09:12:59.243Z,98881.88
2022-10-23T09:16:17.994Z,98906.28
2022-10-23T09:19:27.118Z,98901.91
2022-10-23T09:22:30.964Z,98884.47
2022-10-23T09:33:29.404Z,98888.63
2022-10-23T09:36:34.829Z,98892.38
2022-10-23T09:39:38.664Z,98889.84
2022-10-23T09:42:53.990Z,98894.97
2022-10-23T09:46:04.961Z,98895.28
2022-10-23T09:49:20.737Z,98892.22
2022-10-23T09:52:34.097Z,98894.53
2022-10-23T09:55:40.879Z,98893.84
2022-10-23T09:58:57.816Z,98888.63
2022-10-23T10:02:05.115Z,98889.03
2022-10-23T10:05:28.305Z,98888.22
2022-10-23T10:08:51.117Z,98882.19
2022-10-23T10:12:02.286Z,98889.97
2022-10-23T10:15:21.134Z,98880.56
2022-10-23T10:18:33.994Z,98889.97
2022-10-23T10:21:48.811Z,98892.19
2022-10-23T10:25:00.795Z,98884.53
2022-10-23T10:28:29.556Z,98890.56
2022-10-23T10:31:54.315Z,98879.84
2022-10-23T10:35:13.141Z,98873.00
2022-10-23T10:38:43.889Z,98881.78
2022-10-23T10:42:05.310Z,98875.25
2022-10-23T10:45:27.136Z,98873.53
2022-10-23T10:48:50.540Z,98871.59
2022-10-23T10:52:26.764Z,98867.50
2022-10-23T10:55:39.315Z,98858.09
2022-10-23T10:58:51.355Z,98853.72
2022-10-23T11:02:07.218Z,98860.34
2022-10-23T11:05:27.387Z,98856.47
2022-10-23T11:08:56.262Z,98850.44
2022-10-23T11:12:03.044Z,98843.59
2022-10-23T11:15:15.394Z,98852.38
2022-10-23T11:18:30.898Z,98848.31
2022-10-23T11:21:44.513Z,98844.53
2022-10-23T11:25:47.716Z,98827.50
2022-10-23T11:29:26.863Z,98824.81
2022-10-23T11:33:28.261Z,98825.66
2022-10-23T11:36:47.283Z,98829.13
2022-10-23T11:40:24.349Z,98828.81
2022-10-23T11:43:31.440Z,98824.81
2022-10-23T11:46:39.298Z,98829.22
2022-10-23T11:49:43.039Z,98817.69
2022-10-23T11:53:19.903Z,98817.88
2022-10-23T11:56:31.246Z,98800.44
2022-10-23T11:59:42.612Z,98797.44
2022-10-23T12:02:59.125Z,98800.22
2022-10-23T12:06:06.785Z,98793.19
2022-10-23T12:09:33.052Z,98797.56
2022-10-23T12:12:40.977Z,98790.00
2022-10-23T12:15:58.462Z,98780.63
2022-10-23T12:19:22.913Z,98777.03
2022-10-23T12:22:42.753Z,98776.00
2022-10-23T12:26:08.924Z,98778.78
2022-10-23T12:29:33.927Z,98774.38
2022-10-23T12:33:12.807Z,98780.69
2022-10-23T12:36:46.188Z,98781.22
2022-10-23T12:39:56.032Z,98776.00
2022-10-23T12:43:01.958Z,98778.28
2022-10-23T12:46:33.722Z,98768.28
2022-10-23T12:49:37.412Z,98761.75
2022-10-23T12:52:53.615Z,98764.63
2022-10-23T12:56:01.750Z,98766.03
2022-10-23T12:59:16.998Z,98748.91
2022-10-23T13:02:27.698Z,98761.25
2022-10-23T13:05:34.047Z,98752.69
2022-10-23T13:08:45.808Z,98752.88
2022-10-23T13:12:22.497Z,98742.16
2022-10-23T13:15:27.357Z,98741.88
2022-10-23T13:18:42.801Z,98744.56
2022-10-23T13:21:49.436Z,98749.53
2022-10-23T13:24:54.422Z,98749.53
2022-10-23T13:28:22.009Z,98751.72
2022-10-23T13:31:33.806Z,98747.06
2022-10-23T13:34:37.558Z,98747.69
2022-10-23T13:41:00.394Z,98752.06
2022-10-23T13:44:04.630Z,98752.19
2022-10-23T13:47:14.291Z,98747.50
2022-10-23T13:50:18.029Z,98740.06
2022-10-23T13:53:21.868Z,98731.16
2022-10-23T13:56:28.718Z,98721.19
2022-10-23T13:59:32.331Z,98709.03
2022-10-23T14:02:36.066Z,98715.91
2022-10-23T14:05:39.801Z,98714.50
2022-10-23T14:08:43.372Z,98719.34
2022-10-23T14:11:48.619Z,98718.75
2022-10-23T14:14:52.850Z,98718.75
2022-10-23T14:17:59.114Z,98721.19
2022-10-23T14:21:08.566Z,98713.44
2022-10-23T14:24:12.338Z,98706.81
2022-10-23T14:27:17.284Z,98706.50
2022-10-23T14:30:21.031Z,98712.03
2022-10-23T14:33:25.100Z,98718.34
2022-10-23T14:36:38.493Z,98713.16
2022-10-23T14:39:53.223Z,98714.25
2022-10-23T14:42:58.258Z,98704.88
2022-10-23T14:46:11.013Z,98714.78
2022-10-23T14:49:14.646Z,98710.19
2022-10-23T14:52:18.390Z,98715.69
2022-10-23T14:55:23.488Z,98718.44
2022-10-23T14:58:28.642Z,98712.41
2022-10-23T15:01:33.766Z,98715.47
2022-10-23T15:04:37.475Z,98710.63
2022-10-23T15:07:41.461Z,98707.34
2022-10-23T15:10:45.497Z,98707.94
2022-10-23T15:13:51.011Z,98707.94
2022-10-23T15:16:54.892Z,98707.09
2022-10-23T15:19:58.537Z,98718.13
2022-10-23T15:23:03.003Z,98707.09
2022-10-23T15:26:10.245Z,98703.25
2022-10-23T15:29:16.183Z,98706.00
2022-10-23T15:32:20.233Z,98702.44
2022-10-23T15:35:24.406Z,98703.53
2022-10-23T15:38:28.109Z,98704.66
2022-10-23T15:41:36.569Z,98700.28
2022-10-23T15:44:42.254Z,98703.63
2022-10-23T15:47:45.893Z,98705.91
2022-10-23T15:50:49.935Z,98699.88
2022-10-23T15:53:53.725Z,98701.00
2022-10-23T15:56:58.065Z,98708.75
2022-10-23T16:00:03.189Z,98703.22
2022-10-23T16:03:07.351Z,98705.47
2022-10-23T16:06:14.592Z,98713.22
2022-10-23T16:09:18.478Z,98713.81
2022-10-23T16:12:24.071Z,98716.09
2022-10-23T16:15:29.412Z,98710.06
2022-10-23T16:18:33.269Z,98712.91
2022-10-23T16:21:38.059Z,98708.00
2022-10-23T16:24:41.655Z,98706.69
2022-10-23T16:27:46.985Z,98713.63
2022-10-23T16:30:53.406Z,98713.09
2022-10-23T16:34:00.502Z,98715.66
2022-10-23T16:37:04.303Z,98719.81
2022-10-23T16:40:20.581Z,98729.53
2022-10-23T16:43:43.048Z,98725.44
2022-10-23T16:47:09.261Z,98719.41
2022-10-23T16:50:12.780Z,98718.88
2022-10-23T16:53:16.618Z,98721.13
2022-10-23T16:56:24.547Z,98718.66
2022-10-23T16:59:31.003Z,98712.97
2022-10-23T17:02:36.356Z,98715.81
2022-10-23T17:05:40.141Z,98722.50
2022-10-23T17:08:44.501Z,98729.41
2022-10-23T17:11:50.912Z,98727.56
2022-10-23T17:14:54.708Z,98732.53
2022-10-23T17:17:59.903Z,98732.84
2022-10-23T17:21:03.725Z,98732.03
2022-10-23T17:24:09.404Z,98732.31
2022-10-23T17:27:13.215Z,98733.75
2022-10-23T17:30:17.689Z,98734.88
2022-10-23T17:33:22.675Z,98736.00
2022-10-23T17:36:30.599Z,98733.84
2022-10-23T17:39:34.158Z,98726.19
2022-10-23T17:42:37.364Z,98727.28
2022-10-23T17:45:42.457Z,98715.78
2022-10-23T17:48:47.267Z,98718.03
2022-10-23T17:51:55.386Z,98715.88
2022-10-23T17:54:58.595Z,98719.22
2022-10-23T17:58:02.093Z,98710.97
2022-10-23T18:01:06.651Z,98703.84
2022-10-23T18:04:11.452Z,98701.31
2022-10-23T18:07:15.815Z,98705.41
2022-10-23T18:10:19.052Z,98707.53
2022-10-23T18:13:22.283Z,98696.47
2022-10-23T18:16:26.726Z,98693.41
2022-10-23T18:19:31.511Z,98700.25
2022-10-23T18:22:35.354Z,98696.38
2022-10-23T18:25:45.878Z,98699.03
2022-10-23T18:28:52.069Z,98702.88
2022-10-23T18:31:55.679Z,98695.47
2022-10-23T18:35:00.399Z,98699.53
2022-10-23T18:38:04.724Z,98698.44
2022-10-23T18:41:08.454Z,98700.06
2022-10-23T18:44:16.514Z,98696.19
2022-10-23T18:47:19.873Z,98701.69
2022-10-23T18:50:24.665Z,98701.09
2022-10-23T18:53:28.948Z,98693.97
2022-10-23T18:56:34.081Z,98687.34
2022-10-23T18:59:37.501Z,98684.34
2022-10-23T19:02:41.126Z,98677.69
2022-10-23T19:05:48.593Z,98668.31
2022-10-23T19:08:52.932Z,98671.41
2022-10-23T19:11:56.005Z,98670.59
2022-10-23T19:15:00.274Z,98657.41
2022-10-23T19:18:04.722Z,98658.50
2022-10-23T19:21:10.056Z,98659.34
2022-10-23T19:24:18.749Z,98664.84
2022-10-23T19:27:22.233Z,98659.94
2022-10-23T19:30:26.700Z,98662.09
2022-10-23T19:33:29.960Z,98659.34
2022-10-23T19:36:34.651Z,98660.16
2022-10-23T19:39:38.455Z,98657.09
2022-10-23T19:42:44.440Z,98651.34
2022-10-23T19:45:47.972Z,98649.41
2022-10-23T19:48:51.038Z,98642.75
2022-10-23T19:51:56.028Z,98647.13
2022-10-23T19:54:59.232Z,98651.00
2022-10-23T19:58:02.845Z,98651.81
2022-10-23T20:01:12.725Z,98654.47
2022-10-23T20:04:17.595Z,98652.03
2022-10-23T20:07:22.108Z,98653.66
2022-10-23T20:10:26.548Z,98650.91
2022-10-23T20:13:29.798Z,98643.78
2022-10-23T20:16:37.220Z,98650.91
2022-10-23T20:19:40.593Z,98644.38
2022-10-23T20:22:45.587Z,98632.25
2022-10-23T20:25:48.700Z,98624.00
2022-10-23T20:28:55.212Z,98616.28
2022-10-23T20:31:58.360Z,98610.25
2022-10-23T20:35:02.233Z,98604.75
2022-10-23T20:38:06.626Z,98606.41
2022-10-23T20:41:09.826Z,98610.78
2022-10-23T20:47:20.206Z,98617.81
2022-10-23T20:50:24.201Z,98626.06
2022-10-23T20:53:29.181Z,98631.47
2022-10-23T20:56:35.349Z,98623.72
2022-10-23T20:59:38.917Z,98618.22
2022-10-23T21:02:43.822Z,98615.16
2022-10-23T21:05:49.491Z,98607.72
2022-10-23T21:08:58.248Z,98606.00
2022-10-23T21:12:01.753Z,98595.59
2022-10-23T21:15:05.763Z,98597.25
2022-10-23T21:18:27.172Z,98608.75
2022-10-23T21:21:37.342Z,98602.75
2022-10-23T21:24:42.441Z,98600.50
2022-10-23T21:27:46.578Z,98610.69
2022-10-23T21:30:50.218Z,98609.88
2022-10-23T21:33:53.900Z,98608.25
2022-10-23T21:37:14.239Z,98595.59
2022-10-23T21:40:19.337Z,98603.84
2022-10-23T21:43:22.646Z,98615.97
2022-10-23T21:46:27.505Z,98602.75
2022-10-23T21:49:30.928Z,98596.41
2022-10-23T21:52:34.877Z,98585.72
2022-10-23T21:55:40.110Z,98575.84
2022-10-23T21:58:43.086Z,98561.25
2022-10-23T22:01:48.935Z,98553.81
2022-10-23T22:04:52.080Z,98547.00
2022-10-23T22:07:55.396Z,98554.44
2022-10-23T22:10:59.683Z,98550.25
2022-10-23T22:14:02.990Z,98547.81
2022-10-23T22:17:06.605Z,98551.69
2022-10-23T22:20:10.654Z,98553.63
2022-10-23T22:23:13.615Z,98552.00
2022-10-23T22:26:26.067Z,98559.94
2022-10-23T22:29:31.176Z,98559.75
2022-10-23T22:32:36.521Z,98538.56
2022-10-23T22:35:39.680Z,98527.88
2022-10-23T22:38:43.850Z,98526.75
2022-10-23T22:41:48.616Z,98524.81
2022-10-23T22:44:52.177Z,98532.25
2022-10-23T22:47:55.177Z,98546.31
2022-10-23T22:50:59.085Z,98539.19
2022-10-23T22:54:02.120Z,98536.44
2022-10-23T22:57:06.883Z,98538.16
2022-10-23T23:00:11.302Z,98537.63
2022-10-23T23:03:14.628Z,98523.66
2022-10-23T23:06:18.819Z,98511.66
2022-10-23T23:09:22.346Z,98505.94
2022-10-23T23:12:26.725Z,98511.75
2022-10-23T23:15:30.230Z,98515.09
2022-10-23T23:18:34.424Z,98527.53
2022-10-23T23:21:37.826Z,98527.84
2022-10-23T23:24:40.829Z,98528.97
2022-10-23T23:27:47.396Z,98526.50
2022-10-23T23:30:51.027Z,98530.38
2022-10-23T23:33:55.957Z,98515.00
2022-10-23T23:36:59.350Z,98511.44
2022-10-23T23:40:02.799Z,98498.28
2022-10-23T23:43:07.842Z,98501.56
2022-10-23T23:46:12.448Z,98498.28
2022-10-23T23:49:15.501Z,98492.28
2022-10-23T23:52:19.071Z,98493.09
2022-10-23T23:55:22.457Z,98502.50
2022-10-23T23:58:27.309Z,98496.19
